Time;durP1;ratioP1;P1;durP2;ratioP2;P2;SDS_P1;SDS_P2;PMS_P1;PMS_P2;Temp;Humidity;BMP_temperature;BMP_pressure;BME280_temperature;BME280_humidity;BME280_pressure;Samples;Min_cycle;Max_cycle;Signal;HPM_P1;HPM_P2
2021/07/28 00:01:04;;;;;;;9.53;6.17;;;18.90;99.90;;;;;;7651050;23;20492;-64
2021/07/28 00:04:07;;;;;;;8.93;5.67;;;18.90;99.90;;;;;;7678208;23;20601;-65
2021/07/28 00:07:10;;;;;;;7.73;5.70;;;18.80;99.90;;;;;;7676809;23;20195;-65
2021/07/28 00:10:12;;;;;;;10.30;5.97;;;18.80;99.90;;;;;;7650908;23;20199;-65
2021/07/28 00:13:15;;;;;;;13.30;6.90;;;18.70;99.90;;;;;;7651599;23;20165;-65
2021/07/28 00:16:17;;;;;;;11.30;6.57;;;18.60;99.90;;;;;;7676779;23;20230;-64
2021/07/28 00:19:25;;;;;;;9.03;5.80;;;18.50;99.90;;;;;;7651539;23;20175;-65
2021/07/28 00:25:48;;;;;;;8.90;6.03;;;18.50;99.90;;;;;;7640236;23;20164;-65
2021/07/28 00:28:51;;;;;;;8.27;5.97;;;18.50;99.90;;;;;;7640341;23;20527;-65
2021/07/28 00:31:53;;;;;;;9.23;5.53;;;18.40;99.90;;;;;;7639901;23;20267;-65
2021/07/28 00:34:55;;;;;;;9.87;5.57;;;18.50;99.90;;;;;;7640357;23;20511;-65
2021/07/28 00:38:05;;;;;;;6.63;5.27;;;18.40;99.90;;;;;;7639602;23;20167;-65
2021/07/28 00:41:08;;;;;;;7.10;4.60;;;18.40;99.90;;;;;;7640237;23;20602;-64
2021/07/28 00:44:11;;;;;;;9.97;5.80;;;18.40;99.90;;;;;;7639984;23;20180;-65
2021/07/28 00:47:14;;;;;;;9.43;5.60;;;18.40;99.90;;;;;;7640196;23;20161;-65
2021/07/28 00:50:17;;;;;;;10.33;5.50;;;18.40;99.90;;;;;;7614642;23;20629;-65
2021/07/28 00:53:19;;;;;;;10.63;6.07;;;18.40;99.90;;;;;;7613495;23;20215;-65
2021/07/28 00:56:22;;;;;;;9.80;5.10;;;18.30;99.90;;;;;;7639954;23;20160;-65
2021/07/28 00:59:25;;;;;;;7.53;5.27;;;18.20;99.90;;;;;;7639683;23;20632;-65
2021/07/28 01:02:27;;;;;;;11.90;5.63;;;18.20;99.90;;;;;;7640220;23;20510;-65
2021/07/28 01:05:30;;;;;;;7.93;4.70;;;18.20;99.90;;;;;;7640019;23;20189;-65
2021/07/28 01:08:33;;;;;;;8.80;5.27;;;18.30;99.90;;;;;;7589101;23;20177;-65
2021/07/28 01:11:36;;;;;;;10.30;5.73;;;18.30;99.90;;;;;;7640290;23;20165;-65
2021/07/28 01:14:40;;;;;;;6.30;4.90;;;18.30;99.90;;;;;;7639756;23;20244;-65
2021/07/28 01:17:42;;;;;;;8.77;5.30;;;18.30;99.90;;;;;;7640002;23;20171;-65
2021/07/28 01:20:46;;;;;;;9.33;5.97;;;18.20;99.90;;;;;;7624748;23;20196;-65
2021/07/28 01:23:50;;;;;;;6.60;4.53;;;18.30;99.90;;;;;;7676808;23;20164;-64
2021/07/28 01:26:55;;;;;;;11.13;5.60;;;18.30;99.90;;;;;;7676841;23;20164;-65
2021/07/28 01:29:57;;;;;;;7.43;5.07;;;18.30;99.90;;;;;;7676623;23;20509;-65
2021/07/28 01:33:01;;;;;;;7.17;5.27;;;18.30;99.90;;;;;;7626220;23;20164;-65
2021/07/28 01:36:06;;;;;;;7.97;5.27;;;18.30;99.90;;;;;;7676273;23;20593;-65
2021/07/28 01:39:09;;;;;;;9.93;5.13;;;18.20;99.90;;;;;;7676833;23;20169;-64
2021/07/28 01:42:11;;;;;;;12.30;5.07;;;18.10;99.90;;;;;;7650659;23;20570;-65
2021/07/28 01:45:15;;;;;;;7.93;5.13;;;18.00;99.90;;;;;;7676635;23;20678;-65
2021/07/28 01:48:17;;;;;;;8.80;5.63;;;18.00;99.90;;;;;;7678795;23;20184;-64
2021/07/28 01:51:19;;;;;;;6.83;5.00;;;18.00;99.90;;;;;;7678828;23;20183;-64
2021/07/28 01:54:22;;;;;;;9.20;5.00;;;17.90;99.90;;;;;;7679184;23;20647;-65
2021/07/28 01:57:24;;;;;;;7.90;5.00;;;17.90;99.90;;;;;;7679046;23;20168;-65
2021/07/28 02:00:28;;;;;;;10.70;5.67;;;17.90;99.90;;;;;;7678722;23;20168;-65
2021/07/28 02:03:30;;;;;;;6.90;5.40;;;17.90;99.90;;;;;;7652742;23;20242;-65
2021/07/28 02:06:33;;;;;;;9.80;5.30;;;17.90;99.90;;;;;;7678191;23;20506;-64
2021/07/28 02:09:36;;;;;;;7.60;5.30;;;17.90;99.90;;;;;;7679043;23;20176;-65
2021/07/28 02:12:38;;;;;;;9.63;5.50;;;17.90;99.90;;;;;;7678498;23;20164;-65
2021/07/28 02:15:40;;;;;;;9.40;5.63;;;17.90;99.90;;;;;;7678865;23;20215;-65
2021/07/28 02:18:42;;;;;;;10.40;5.10;;;17.90;99.90;;;;;;7678953;23;20164;-64
2021/07/28 02:21:45;;;;;;;9.17;5.03;;;17.90;99.90;;;;;;7678087;23;20215;-65
2021/07/28 02:24:47;;;;;;;7.77;4.97;;;17.80;99.90;;;;;;7628043;23;20175;-65
2021/07/28 02:27:50;;;;;;;6.67;4.70;;;17.80;99.90;;;;;;7678261;23;20187;-65
2021/07/28 02:30:52;;;;;;;10.27;5.53;;;17.80;99.90;;;;;;7678593;23;20185;-65
2021/07/28 02:33:54;;;;;;;7.73;4.97;;;17.80;99.90;;;;;;7678959;23;20494;-65
2021/07/28 02:36:56;;;;;;;7.70;5.30;;;17.80;99.90;;;;;;7678074;23;20168;-65
2021/07/28 02:39:59;;;;;;;8.20;5.47;;;17.80;99.90;;;;;;7679050;23;20175;-65
2021/07/28 02:43:01;;;;;;;8.57;5.20;;;17.70;99.90;;;;;;7678163;23;20283;-64
2021/07/28 02:46:04;;;;;;;9.27;5.43;;;17.70;99.90;;;;;;7652151;23;20179;-65
2021/07/28 02:49:06;;;;;;;10.20;5.77;;;17.70;99.90;;;;;;7678458;23;20188;-65
2021/07/28 02:52:08;;;;;;;10.03;6.73;;;17.70;99.90;;;;;;7677839;23;20164;-65
2021/07/28 02:55:11;;;;;;;10.10;5.33;;;17.70;99.90;;;;;;7678544;23;20168;-65
2021/07/28 02:58:13;;;;;;;7.20;5.83;;;17.70;99.90;;;;;;7677760;23;20160;-65
2021/07/28 03:01:16;;;;;;;7.33;5.73;;;17.70;99.90;;;;;;7678369;23;20164;-65
2021/07/28 03:04:19;;;;;;;9.43;5.63;;;17.80;99.90;;;;;;7678173;23;20168;-65
2021/07/28 03:07:21;;;;;;;8.17;5.87;;;17.90;99.90;;;;;;7651949;23;20243;-65
2021/07/28 03:10:24;;;;;;;5.97;5.33;;;17.90;99.90;;;;;;7651939;23;20212;-64
2021/07/28 03:13:26;;;;;;;7.13;5.40;;;17.90;99.90;;;;;;7677677;23;20246;-65
2021/07/28 03:16:28;;;;;;;8.40;5.80;;;18.00;99.90;;;;;;7678153;23;20160;-65
2021/07/28 03:19:31;;;;;;;9.10;5.53;;;18.10;99.90;;;;;;7677642;23;20172;-65
2021/07/28 03:22:33;;;;;;;7.90;5.10;;;18.10;99.90;;;;;;7677826;23;20195;-64
2021/07/28 03:25:36;;;;;;;11.57;5.67;;;18.20;99.90;;;;;;7678250;23;20164;-65
2021/07/28 03:28:39;;;;;;;7.57;4.80;;;18.20;99.90;;;;;;7677573;23;20171;-65
2021/07/28 03:31:41;;;;;;;6.60;5.40;;;18.30;99.90;;;;;;7651514;23;20644;-65
2021/07/28 03:34:43;;;;;;;7.13;5.07;;;18.30;99.90;;;;;;7677439;23;20624;-65
2021/07/28 03:37:46;;;;;;;6.57;5.30;;;18.30;99.90;;;;;;7677716;23;20164;-65
2021/07/28 03:40:48;;;;;;;9.70;5.57;;;18.30;99.90;;;;;;7677785;23;20174;-65
2021/07/28 03:43:50;;;;;;;6.40;5.43;;;18.30;99.90;;;;;;7650706;23;20171;-65
2021/07/28 03:46:52;;;;;;;7.37;5.20;;;18.40;99.90;;;;;;7677418;23;20176;-65
2021/07/28 03:49:54;;;;;;;8.33;5.30;;;18.40;99.90;;;;;;7676940;23;20286;-65
2021/07/28 03:52:59;;;;;;;8.93;5.30;;;18.50;99.90;;;;;;7677685;23;20164;-65
2021/07/28 03:56:02;;;;;;;8.77;5.57;;;18.50;99.90;;;;;;7651273;23;20164;-65
2021/07/28 03:59:04;;;;;;;8.67;4.90;;;18.50;99.90;;;;;;7650465;23;20168;-65
2021/07/28 04:02:06;;;;;;;7.43;5.13;;;18.50;99.90;;;;;;7677323;23;20497;-65
2021/07/28 04:05:10;;;;;;;6.53;5.70;;;18.50;99.90;;;;;;7676623;23;20640;-65
2021/07/28 04:08:12;;;;;;;8.83;5.63;;;18.50;99.90;;;;;;7677273;23;20172;-65
2021/07/28 04:11:14;;;;;;;11.17;4.80;;;18.50;99.90;;;;;;7676254;23;20242;-65
2021/07/28 04:14:17;;;;;;;6.83;5.13;;;18.50;99.90;;;;;;7677369;23;20163;-65
2021/07/28 04:17:19;;;;;;;8.93;5.37;;;18.50;99.90;;;;;;7676967;23;20184;-65
2021/07/28 04:20:22;;;;;;;12.17;5.53;;;18.50;99.90;;;;;;7625678;23;20670;-65
2021/07/28 04:23:24;;;;;;;6.00;4.83;;;18.50;99.90;;;;;;7677258;23;20514;-65
2021/07/28 04:26:26;;;;;;;6.67;5.07;;;18.50;99.90;;;;;;7676383;23;20168;-65
2021/07/28 04:29:29;;;;;;;6.93;5.30;;;18.50;99.90;;;;;;7650693;23;20203;-65
2021/07/28 04:32:31;;;;;;;6.37;5.13;;;18.60;99.90;;;;;;7677017;23;20156;-65
2021/07/28 04:35:34;;;;;;;7.97;5.47;;;18.60;99.90;;;;;;7649967;23;20168;-65
2021/07/28 04:38:37;;;;;;;7.80;5.40;;;18.70;99.90;;;;;;7676838;23;20628;-65
2021/07/28 04:41:41;;;;;;;9.93;5.90;;;18.70;99.90;;;;;;7650833;23;20175;-65
2021/07/28 04:44:44;;;;;;;9.40;5.00;;;18.80;99.90;;;;;;7650623;23;20639;-65
2021/07/28 04:47:46;;;;;;;9.97;5.47;;;18.90;99.90;;;;;;7649958;23;20178;-65
2021/07/28 04:50:49;;;;;;;8.93;4.80;;;19.20;99.90;;;;;;7676167;23;20259;-65
2021/07/28 04:53:51;;;;;;;6.30;4.63;;;19.50;99.90;;;;;;7677061;23;20490;-65
2021/07/28 04:56:53;;;;;;;8.77;4.40;;;19.90;99.90;;;;;;7676131;23;20163;-65
2021/07/28 04:59:56;;;;;;;7.07;4.17;;;20.30;99.90;;;;;;7650645;23;20179;-66
2021/07/28 05:02:58;;;;;;;10.10;4.43;;;20.50;99.90;;;;;;7650153;23;20179;-65
2021/07/28 05:06:00;;;;;;;8.60;4.70;;;20.60;99.90;;;;;;7650332;23;20515;-65
2021/07/28 05:09:03;;;;;;;6.70;3.70;;;20.60;99.90;;;;;;7650372;23;20203;-65
2021/07/28 05:12:06;;;;;;;5.73;3.93;;;20.60;99.90;;;;;;7676262;23;20183;-65
2021/07/28 05:15:10;;;;;;;7.93;4.47;;;20.70;99.90;;;;;;7676773;23;20601;-64
2021/07/28 05:18:12;;;;;;;8.20;4.13;;;20.70;99.90;;;;;;7625300;23;20168;-65
2021/07/28 05:21:14;;;;;;;6.53;4.43;;;20.60;99.90;;;;;;7676981;23;20467;-64
2021/07/28 05:24:17;;;;;;;4.53;3.77;;;20.60;99.90;;;;;;7680185;23;20175;-64
2021/07/28 05:27:19;;;;;;;5.10;4.00;;;20.60;99.90;;;;;;7678519;23;20195;-64
2021/07/28 05:30:21;;;;;;;6.93;4.33;;;20.70;99.90;;;;;;7652612;23;20196;-64
2021/07/28 05:33:25;;;;;;;6.73;4.10;;;20.80;99.90;;;;;;7678608;23;20164;-64
2021/07/28 05:36:27;;;;;;;4.37;3.83;;;20.80;99.90;;;;;;7652668;23;20176;-64
2021/07/28 05:39:29;;;;;;;4.63;4.20;;;20.80;99.90;;;;;;7679149;23;20240;-65
2021/07/28 05:42:31;;;;;;;6.13;4.10;;;20.80;99.90;;;;;;7678470;23;20165;-64
2021/07/28 05:45:34;;;;;;;5.67;3.77;;;20.70;99.90;;;;;;7652535;23;20644;-65
2021/07/28 05:48:36;;;;;;;5.63;4.37;;;20.70;99.90;;;;;;7651615;23;20175;-65
2021/07/28 05:51:39;;;;;;;5.93;3.30;;;20.80;99.90;;;;;;7678977;23;20184;-65
2021/07/28 05:54:41;;;;;;;5.27;3.87;;;20.90;99.90;;;;;;7651869;23;20195;-64
2021/07/28 05:57:45;;;;;;;4.97;3.73;;;21.00;99.90;;;;;;7652233;23;20494;-64
2021/07/28 06:00:48;;;;;;;5.10;3.83;;;21.10;99.90;;;;;;7678678;23;20175;-65
2021/07/28 06:03:51;;;;;;;5.57;3.50;;;21.20;99.90;;;;;;7678398;23;20263;-65
2021/07/28 06:06:54;;;;;;;5.43;3.87;;;21.10;99.90;;;;;;7678758;23;20187;-64
2021/07/28 06:09:56;;;;;;;8.03;4.00;;;21.10;99.90;;;;;;7678073;23;20254;-64
2021/07/28 06:13:01;;;;;;;4.33;3.30;;;21.10;99.90;;;;;;7652441;23;20483;-65
2021/07/28 06:16:04;;;;;;;6.17;3.87;;;21.20;99.90;;;;;;7652776;23;20577;-65
2021/07/28 06:19:06;;;;;;;4.83;4.03;;;21.30;99.90;;;;;;7678025;23;20250;-65
2021/07/28 06:22:09;;;;;;;6.13;4.67;;;21.40;99.90;;;;;;7678576;23;20199;-65
2021/07/28 06:25:12;;;;;;;5.63;4.30;;;21.50;99.90;;;;;;7651749;23;20183;-65
2021/07/28 06:28:15;;;;;;;6.47;4.00;;;21.60;99.90;;;;;;7678341;23;20175;-64
2021/07/28 06:31:17;;;;;;;11.33;4.50;;;21.80;99.90;;;;;;7678333;23;20267;-64
2021/07/28 06:34:20;;;;;;;6.93;4.63;;;21.90;99.90;;;;;;7677707;23;20164;-65
2021/07/28 06:37:22;;;;;;;5.27;3.90;;;22.20;99.90;;;;;;7678415;23;20172;-66
2021/07/28 06:40:25;;;;;;;5.43;3.77;;;22.40;99.90;;;;;;7651227;23;20571;-65
2021/07/28 06:43:27;;;;;;;5.70;3.70;;;22.60;99.90;;;;;;7678171;23;20247;-65
2021/07/28 06:46:30;;;;;;;4.10;3.70;;;22.80;99.90;;;;;;7677557;23;20658;-65
2021/07/28 06:49:32;;;;;;;3.83;3.43;;;23.00;99.90;;;;;;7678192;23;20191;-65
2021/07/28 06:52:35;;;;;;;5.83;3.43;;;23.20;99.90;;;;;;7678279;23;20214;-65
2021/07/28 06:55:38;;;;;;;5.83;3.50;;;23.30;99.90;;;;;;7677745;23;20243;-65
2021/07/28 06:58:40;;;;;;;6.53;3.93;;;23.40;99.90;;;;;;7677777;23;20172;-65
2021/07/28 07:01:44;;;;;;;6.33;4.43;;;23.40;99.90;;;;;;7677587;23;20506;-65
2021/07/28 07:04:47;;;;;;;4.27;3.63;;;23.60;99.90;;;;;;7678009;23;20570;-65
2021/07/28 07:07:50;;;;;;;5.13;3.30;;;23.90;99.90;;;;;;7677859;23;20171;-65
2021/07/28 07:10:53;;;;;;;4.30;3.60;;;24.20;99.90;;;;;;7651214;23;20501;-65
2021/07/28 07:13:55;;;;;;;3.90;3.50;;;24.50;99.90;;;;;;7678044;23;20171;-65
2021/07/28 07:16:58;;;;;;;5.13;3.30;;;24.70;99.90;;;;;;7651007;23;20199;-65
2021/07/28 07:20:00;;;;;;;4.97;3.50;;;24.90;99.90;;;;;;7627161;23;20176;-65
2021/07/28 07:23:03;;;;;;;4.07;3.50;;;25.10;99.90;;;;;;7651653;23;20191;-65
2021/07/28 07:26:05;;;;;;;4.75;3.63;;;25.30;99.90;;;;;;7677242;23;20176;-65
2021/07/28 07:29:08;;;;;;;3.47;3.17;;;25.50;99.90;;;;;;7677749;23;20172;-66
2021/07/28 07:32:10;;;;;;;4.00;3.10;;;25.60;99.90;;;;;;7677173;23;20181;-65
2021/07/28 07:35:12;;;;;;;5.55;3.40;;;25.70;99.90;;;;;;7651698;23;20167;-65
2021/07/28 07:38:15;;;;;;;4.25;3.15;;;25.90;99.90;;;;;;7676992;23;20223;-65
2021/07/28 07:41:17;;;;;;;5.18;3.47;;;26.00;99.90;;;;;;7677837;23;20680;-65
2021/07/28 07:44:19;;;;;;;3.47;3.00;;;26.30;99.90;;;;;;7677260;23;20521;-65
2021/07/28 07:47:21;;;;;;;7.57;3.30;;;26.40;99.80;;;;;;7676993;23;20239;-65
2021/07/28 07:50:24;;;;;;;3.80;3.05;;;26.60;99.30;;;;;;7677491;23;20187;-65
2021/07/28 07:53:26;;;;;;;4.97;3.80;;;26.80;98.40;;;;;;7676901;23;20194;-65
2021/07/28 07:56:28;;;;;;;5.28;3.28;;;27.10;98.30;;;;;;7651048;23;20172;-65
2021/07/28 07:59:31;;;;;;;3.35;3.05;;;27.50;98.30;;;;;;7677535;23;20175;-65
2021/07/28 08:02:33;;;;;;;4.25;3.10;;;27.80;97.40;;;;;;7676898;23;20164;-65
2021/07/28 08:05:36;;;;;;;5.38;3.35;;;28.10;96.70;;;;;;7677379;23;20547;-65
2021/07/28 08:08:39;;;;;;;4.28;3.50;;;28.30;95.80;;;;;;7676619;23;20179;-65
2021/07/28 08:11:41;;;;;;;3.80;3.20;;;28.50;94.60;;;;;;7677286;23;20210;-65
2021/07/28 08:14:43;;;;;;;3.35;2.78;;;28.80;94.30;;;;;;7650977;23;20168;-65
2021/07/28 08:17:46;;;;;;;3.50;3.20;;;29.00;93.40;;;;;;7650457;23;20160;-66
2021/07/28 08:20:48;;;;;;;3.45;3.10;;;29.20;92.00;;;;;;7650603;23;20216;-65
2021/07/28 08:23:50;;;;;;;3.90;3.13;;;29.20;91.00;;;;;;7676570;23;20583;-65
2021/07/28 08:26:54;;;;;;;3.47;3.17;;;29.40;90.50;;;;;;7677124;23;20442;-66
2021/07/28 08:29:56;;;;;;;5.20;3.63;;;29.60;90.00;;;;;;7677706;23;20219;-66
2021/07/28 08:32:58;;;;;;;3.58;3.28;;;29.60;89.30;;;;;;7677203;23;20172;-66
2021/07/28 08:36:04;;;;;;;3.97;3.33;;;29.60;88.70;;;;;;7677052;23;20160;-65
2021/07/28 08:39:06;;;;;;;3.67;3.35;;;29.50;88.80;;;;;;7650958;23;20152;-65
2021/07/28 08:42:09;;;;;;;3.97;3.42;;;29.80;89.60;;;;;;7650993;23;20176;-66
2021/07/28 08:45:17;;;;;;;6.65;3.45;;;30.00;86.60;;;;;;7676353;23;20175;-65
2021/07/28 08:48:22;;;;;;;3.85;3.50;;;30.10;85.60;;;;;;7677096;23;20247;-65
2021/07/28 08:51:26;;;;;;;4.03;3.63;;;30.20;82.80;;;;;;7651020;23;20204;-65
2021/07/28 08:54:28;;;;;;;3.65;3.35;;;30.30;83.20;;;;;;7676559;23;20175;-66
2021/07/28 08:57:35;;;;;;;3.72;3.40;;;30.60;82.40;;;;;;7650324;23;20172;-66
2021/07/28 09:00:42;;;;;;;3.47;3.10;;;30.80;80.90;;;;;;7676299;23;20156;-66
2021/07/28 09:03:46;;;;;;;3.10;2.80;;;31.10;79.20;;;;;;7677000;23;20226;-66
2021/07/28 09:06:48;;;;;;;3.60;3.30;;;31.50;78.90;;;;;;7676554;23;20203;-66
2021/07/28 09:09:56;;;;;;;4.75;2.88;;;31.90;77.40;;;;;;7676358;23;20172;-66
2021/07/28 09:12:58;;;;;;;3.38;3.05;;;32.10;77.40;;;;;;7676822;23;20196;-66
2021/07/28 09:16:03;;;;;;;3.78;3.38;;;32.30;76.30;;;;;;7650188;23;20230;-66
2021/07/28 09:19:06;;;;;;;6.13;3.55;;;32.60;76.60;;;;;;7676668;23;20598;-66
2021/07/28 09:22:10;;;;;;;4.50;3.40;;;33.00;74.50;;;;;;7649594;23;20211;-66
2021/07/28 09:25:25;;;;;;;3.78;3.47;;;33.00;72.00;;;;;;7676831;23;20164;-66
2021/07/28 09:28:27;;;;;;;3.97;3.63;;;33.00;70.00;;;;;;7676558;23;20168;-66
2021/07/28 09:31:38;;;;;;;3.60;3.30;;;33.00;67.10;;;;;;7676021;23;20519;-66
2021/07/28 09:34:40;;;;;;;5.18;3.42;;;32.90;68.00;;;;;;7650733;23;20615;-66
2021/07/28 09:37:42;;;;;;;3.58;3.28;;;33.20;67.80;;;;;;7675845;23;20218;-66
2021/07/28 09:40:45;;;;;;;3.60;3.30;;;33.30;66.40;;;;;;7676704;23;20168;-66
2021/07/28 09:43:53;;;;;;;3.42;3.13;;;33.30;65.20;;;;;;7676781;23;20175;-66
2021/07/28 09:47:18;;;;;;;3.58;3.28;;;33.30;66.80;;;;;;7675935;23;20167;-66
2021/07/28 09:50:20;;;;;;;4.10;3.70;;;33.50;67.30;;;;;;7676516;23;20169;-66
2021/07/28 09:53:28;;;;;;;3.80;3.40;;;33.60;66.50;;;;;;7675940;23;20171;-66
2021/07/28 09:56:53;;;;;;;4.00;3.50;;;33.50;62.70;;;;;;7650386;23;20164;-66
2021/07/28 10:00:06;;;;;;;4.40;3.67;;;33.60;65.10;;;;;;7675912;23;20152;-66
2021/07/28 10:03:09;;;;;;;3.85;3.45;;;34.00;62.00;;;;;;7676587;23;20168;-67
2021/07/28 10:06:13;;;;;;;6.63;3.75;;;34.00;61.90;;;;;;7676284;23;20199;-66
2021/07/28 10:09:19;;;;;;;3.47;3.10;;;34.30;60.80;;;;;;7678128;23;20172;-67
2021/07/28 10:12:23;;;;;;;3.67;3.38;;;34.40;60.00;;;;;;7652254;23;20188;-66
2021/07/28 10:15:26;;;;;;;5.38;3.60;;;34.20;59.60;;;;;;7678211;23;20619;-66
2021/07/28 10:18:29;;;;;;;3.55;3.25;;;34.50;62.00;;;;;;7678566;23;20168;-66
2021/07/28 10:21:33;;;;;;;3.72;3.42;;;34.90;60.20;;;;;;7677801;23;20241;-66
2021/07/28 10:24:35;;;;;;;4.35;3.78;;;35.10;59.40;;;;;;7678583;23;20160;-66
2021/07/28 10:27:44;;;;;;;5.45;3.55;;;35.10;58.20;;;;;;7678446;23;20164;-66
2021/07/28 10:31:13;;;;;;;3.97;3.65;;;35.30;57.90;;;;;;7677759;23;20207;-66
2021/07/28 10:34:28;;;;;;;4.13;3.72;;;35.60;57.30;;;;;;7678434;23;20155;-66
2021/07/28 10:37:30;;;;;;;4.68;3.20;;;35.80;54.60;;;;;;7677651;23;20605;-67
2021/07/28 10:40:46;;;;;;;3.78;3.40;;;35.90;54.90;;;;;;7652396;23;20232;-66
2021/07/28 10:44:09;;;;;;;4.13;3.50;;;36.00;55.70;;;;;;7651354;23;20601;-67
2021/07/28 10:47:12;;;;;;;3.30;3.00;;;36.30;54.60;;;;;;7678282;23;20192;-66
2021/07/28 10:50:20;;;;;;;4.95;3.88;;;36.40;53.50;;;;;;7678087;23;20243;-66
2021/07/28 10:53:46;;;;;;;3.50;3.20;;;36.30;53.40;;;;;;7678199;23;20187;-66
2021/07/28 10:57:07;;;;;;;3.97;3.22;;;36.30;54.10;;;;;;7678217;23;20219;-66
2021/07/28 11:00:34;;;;;;;4.15;3.50;;;36.40;53.10;;;;;;7651119;23;20580;-66
2021/07/28 11:03:38;;;;;;;4.85;3.60;;;36.90;53.60;;;;;;7651449;23;20617;-66
2021/07/28 11:06:47;;;;;;;4.70;3.67;;;36.90;50.00;;;;;;7677544;23;20191;-66
2021/07/28 11:10:05;;;;;;;4.95;3.45;;;36.80;51.60;;;;;;7652145;23;20530;-66
2021/07/28 11:13:10;;;;;;;6.22;3.70;;;37.10;51.70;;;;;;7677392;23;20283;-66
2021/07/28 11:16:14;;;;;;;5.43;3.42;;;36.60;51.30;;;;;;7678392;23;20184;-66
2021/07/28 11:19:17;;;;;;;3.55;3.25;;;36.20;53.60;;;;;;7676968;23;20168;-66
2021/07/28 11:22:26;;;;;;;4.00;3.60;;;36.50;54.20;;;;;;7677251;23;20600;-67
2021/07/28 11:25:32;;;;;;;5.47;3.80;;;37.10;52.60;;;;;;7677838;23;20683;-66
2021/07/28 11:28:34;;;;;;;4.95;3.70;;;37.10;50.90;;;;;;7677229;23;20160;-66
2021/07/28 11:31:39;;;;;;;5.28;3.97;;;36.90;50.10;;;;;;7677612;23;20192;-66
2021/07/28 11:34:55;;;;;;;4.45;3.80;;;36.90;51.50;;;;;;7677888;23;20247;-67
2021/07/28 11:38:16;;;;;;;4.60;4.10;;;37.50;50.50;;;;;;7677109;23;20168;-66
2021/07/28 11:41:22;;;;;;;5.65;3.80;;;37.80;48.90;;;;;;7677897;23;20160;-67
2021/07/28 11:44:24;;;;;;;4.60;3.92;;;37.40;48.80;;;;;;7677388;23;20589;-66
2021/07/28 11:47:27;;;;;;;4.70;3.70;;;36.70;49.80;;;;;;7677245;23;20171;-66
2021/07/28 11:50:37;;;;;;;5.60;4.00;;;36.90;52.30;;;;;;7676988;23;20176;-67
2021/07/28 11:53:40;;;;;;;5.18;4.13;;;37.20;50.50;;;;;;7677568;23;20160;-66
2021/07/28 11:56:53;;;;;;;7.00;3.80;;;36.40;49.20;;;;;;7677695;23;20168;-66
2021/07/28 12:00:31;;;;;;;5.30;4.20;;;36.50;50.60;;;;;;7677091;23;20203;-66
2021/07/28 12:03:36;;;;;;;6.82;4.15;;;36.10;48.00;;;;;;7677582;23;20160;-66
2021/07/28 12:06:43;;;;;;;5.68;4.10;;;35.90;49.10;;;;;;7676633;23;20191;-66
2021/07/28 12:09:59;;;;;;;7.47;4.13;;;35.70;49.40;;;;;;7677260;23;20169;-66
2021/07/28 12:13:19;;;;;;;4.40;3.58;;;36.10;49.60;;;;;;7676811;23;20180;-66
2021/07/28 12:16:22;;;;;;;5.80;3.63;;;36.70;48.30;;;;;;7676975;23;20164;-66
2021/07/28 12:19:34;;;;;;;5.05;4.13;;;37.20;47.30;;;;;;7676750;23;20537;-67
2021/07/28 12:22:41;;;;;;;3.83;3.53;;;37.00;46.60;;;;;;7677206;23;20196;-66
2021/07/28 12:25:46;;;;;;;5.97;4.18;;;36.70;48.40;;;;;;7677067;23;20489;-66
2021/07/28 12:28:52;;;;;;;5.68;3.92;;;37.10;50.50;;;;;;7676439;23;20163;-66
2021/07/28 12:31:54;;;;;;;4.60;3.47;;;37.50;48.50;;;;;;7650390;23;20215;-66
2021/07/28 12:34:56;;;;;;;4.95;3.85;;;37.00;47.80;;;;;;7676481;23;20171;-66
2021/07/28 12:38:12;;;;;;;4.13;3.40;;;36.60;49.80;;;;;;7650499;23;20613;-66
2021/07/28 12:41:16;;;;;;;6.63;4.10;;;36.60;49.10;;;;;;7651273;23;20164;-66
2021/07/28 12:44:18;;;;;;;6.90;4.45;;;36.80;47.80;;;;;;7676378;23;20585;-66
2021/07/28 12:47:21;;;;;;;4.18;3.67;;;37.30;47.30;;;;;;7676685;23;20168;-66
2021/07/28 12:50:23;;;;;;;7.35;4.05;;;37.40;47.50;;;;;;7649988;23;20172;-66
2021/07/28 12:53:27;;;;;;;6.55;3.70;;;37.60;47.50;;;;;;7676772;23;20206;-66
2021/07/28 12:56:29;;;;;;;6.45;3.25;;;37.50;47.60;;;;;;7676264;23;20156;-66
2021/07/28 12:59:31;;;;;;;4.75;3.35;;;37.60;48.40;;;;;;7676770;23;20210;-66
2021/07/28 13:02:33;;;;;;;5.95;3.72;;;38.00;48.40;;;;;;7676877;23;20543;-67
2021/07/28 13:05:41;;;;;;;7.22;4.00;;;38.40;46.30;;;;;;7676253;23;20188;-67
2021/07/28 13:08:43;;;;;;;6.25;3.70;;;38.50;45.50;;;;;;7676798;23;20234;-66
2021/07/28 13:11:45;;;;;;;7.05;3.70;;;38.00;45.40;;;;;;7676216;23;20191;-67
2021/07/28 13:14:48;;;;;;;6.45;3.67;;;37.70;46.60;;;;;;7650330;23;20167;-66
2021/07/28 13:17:51;;;;;;;5.40;3.60;;;37.40;46.50;;;;;;7676796;23;20172;-66
2021/07/28 13:20:54;;;;;;;7.60;4.22;;;37.40;47.90;;;;;;7676027;23;20191;-67
2021/07/28 13:24:01;;;;;;;8.80;4.18;;;37.50;47.50;;;;;;7651686;23;20149;-66
2021/07/28 13:27:03;;;;;;;7.35;3.85;;;37.90;45.60;;;;;;7676402;23;20172;-67
2021/07/28 13:30:07;;;;;;;5.43;3.90;;;37.50;45.00;;;;;;7676817;23;20215;-66
2021/07/28 13:33:10;;;;;;;10.70;4.35;;;37.50;48.40;;;;;;7676433;23;20188;-66
2021/07/28 13:36:12;;;;;;;5.82;4.18;;;37.90;45.90;;;;;;7650169;23;20158;-67
2021/07/28 13:39:14;;;;;;;5.10;3.90;;;37.60;44.70;;;;;;7676538;23;20161;-66
2021/07/28 13:42:17;;;;;;;7.13;3.97;;;37.40;45.60;;;;;;7676262;23;20167;-66
2021/07/28 13:45:20;;;;;;;5.93;3.92;;;37.80;46.50;;;;;;7679021;23;20597;-67
2021/07/28 13:48:23;;;;;;;4.85;3.55;;;38.20;48.20;;;;;;7651728;23;20172;-66
2021/07/28 13:51:26;;;;;;;7.80;4.07;;;38.20;48.80;;;;;;7679008;23;20247;-66
2021/07/28 13:54:29;;;;;;;6.97;3.95;;;38.30;47.90;;;;;;7679020;23;20235;-67
2021/07/28 13:57:31;;;;;;;6.85;4.50;;;38.80;48.70;;;;;;7678112;23;20168;-67
2021/07/28 14:00:33;;;;;;;4.85;3.90;;;39.20;47.00;;;;;;7678757;23;20167;-67
2021/07/28 14:03:37;;;;;;;5.72;3.80;;;39.40;48.00;;;;;;7651930;23;20172;-67
2021/07/28 14:06:40;;;;;;;9.23;4.22;;;39.60;47.60;;;;;;7652799;23;20200;-67
2021/07/28 14:09:42;;;;;;;6.78;4.22;;;39.60;45.40;;;;;;7652237;23;20211;-66
2021/07/28 14:12:45;;;;;;;5.78;4.00;;;39.80;44.40;;;;;;7651542;23;20192;-66
2021/07/28 14:15:47;;;;;;;10.20;3.90;;;40.20;44.00;;;;;;7652110;23;20168;-66
2021/07/28 14:18:49;;;;;;;6.63;4.03;;;40.10;44.10;;;;;;7677931;23;20247;-66
2021/07/28 14:21:52;;;;;;;4.60;3.88;;;39.90;46.60;;;;;;7678616;23;20195;-67
2021/07/28 14:24:54;;;;;;;4.97;3.45;;;39.80;47.10;;;;;;7652240;23;20168;-67
2021/07/28 14:27:56;;;;;;;6.07;3.53;;;40.30;47.20;;;;;;7677903;23;20238;-66
2021/07/28 14:30:58;;;;;;;8.23;4.07;;;40.60;47.50;;;;;;7678799;23;20612;-66
2021/07/28 14:34:01;;;;;;;8.98;4.63;;;41.00;47.00;;;;;;7677897;23;20195;-67
2021/07/28 14:37:06;;;;;;;6.65;4.30;;;41.50;46.20;;;;;;7652622;23;20164;-67
2021/07/28 14:40:09;;;;;;;6.68;4.00;;;42.00;44.00;;;;;;7651205;23;20184;-67
2021/07/28 14:43:11;;;;;;;5.63;3.70;;;42.10;42.20;;;;;;7652119;23;20176;-66
2021/07/28 14:46:13;;;;;;;5.80;4.15;;;41.90;44.60;;;;;;7652112;23;20175;-67
2021/07/28 14:49:16;;;;;;;6.50;3.63;;;41.20;45.40;;;;;;7677857;23;20175;-67
2021/07/28 14:52:18;;;;;;;5.72;3.97;;;40.00;47.30;;;;;;7652075;23;20188;-66
2021/07/28 14:55:20;;;;;;;5.13;3.38;;;38.80;48.60;;;;;;7677473;23;20171;-66
2021/07/28 14:58:23;;;;;;;4.68;3.72;;;37.80;50.30;;;;;;7678265;23;20164;-66
2021/07/28 15:01:25;;;;;;;5.60;3.78;;;36.90;51.60;;;;;;7651923;23;20477;-67
2021/07/28 15:04:28;;;;;;;5.38;3.83;;;35.90;52.70;;;;;;7677640;23;20164;-66
2021/07/28 15:07:30;;;;;;;8.55;4.55;;;35.00;53.90;;;;;;7678089;23;20169;-67
2021/07/28 15:10:33;;;;;;;6.63;4.03;;;34.30;55.60;;;;;;7677381;23;20633;-66
2021/07/28 15:13:36;;;;;;;6.15;3.50;;;33.50;56.70;;;;;;7677963;23;20636;-67
2021/07/28 15:16:40;;;;;;;8.65;3.95;;;32.90;58.40;;;;;;7678125;23;20206;-66
2021/07/28 15:19:42;;;;;;;8.95;4.43;;;32.30;58.70;;;;;;7677298;23;20169;-66
2021/07/28 15:22:44;;;;;;;6.25;4.03;;;31.70;61.40;;;;;;7677829;23;20198;-66
2021/07/28 15:25:47;;;;;;;9.40;4.25;;;31.10;63.90;;;;;;7676987;23;20226;-66
2021/07/28 15:28:51;;;;;;;7.50;4.05;;;30.60;66.60;;;;;;7677572;23;20168;-66
2021/07/28 15:31:55;;;;;;;7.15;3.92;;;30.00;68.90;;;;;;7677123;23;20180;-66
2021/07/28 15:34:57;;;;;;;9.88;4.50;;;29.80;69.10;;;;;;7677687;23;20164;-66
2021/07/28 15:38:00;;;;;;;9.30;4.18;;;29.70;70.60;;;;;;7677684;23;20168;-66
2021/07/28 15:41:02;;;;;;;11.55;4.57;;;29.40;72.90;;;;;;7651448;23;20248;-66
2021/07/28 15:44:05;;;;;;;5.55;3.92;;;28.60;75.30;;;;;;7651957;23;20168;-66
2021/07/28 15:47:07;;;;;;;4.60;2.88;;;28.10;67.80;;;;;;7651307;23;20243;-66
2021/07/28 15:50:12;;;;;;;3.78;1.85;;;27.90;67.90;;;;;;7651450;23;20499;-66
2021/07/28 15:53:16;;;;;;;3.20;1.25;;;27.60;66.70;;;;;;7677490;23;20511;-65
2021/07/28 15:56:19;;;;;;;5.85;1.70;;;27.10;68.70;;;;;;7677275;23;20243;-65
2021/07/28 15:59:22;;;;;;;2.80;1.63;;;26.70;74.60;;;;;;7651308;23;20234;-67